Lebanon, TN

1:28 AM CST on February 10, 2016 (GMT -0600)
@WilsonSevereWX | | Change Station
CLOSE
Current Station
Personal Weather Station
Location: Lebanon, TN
Elevation: 570 ft
Nearby Weather Stations
Active Advisory: Winter Weather Advisory Active Notice: Local Storm Report

Elev 570 ft 36.22 °N, 86.26 °W | Updated 8 seconds ago

Overcast
Overcast
20.8 °F
Feels Like 16 °F
N
3.1
Wind Variable Wind from West
Gusts 6.0 mph

Today
High -- | Low -- °F
--% Chance of Precip.
Yesterday
High -- | Low -- °F
Precip. -- in
Pressure 30.17 in
Visibility 10.0 miles
Clouds Few 500 ft
Scattered Clouds 3200 ft
Overcast 5000 ft
Windchill 16 °F
Dew Point 14 °F
Humidity 75%
Rainfall 0.00 in
Snow Depth Not available.
6:38 AM 5:20 PM
Waxing Crescent, 4% visible
METAR KMQY 100656Z AUTO 26004KT 10SM -SN FEW005 SCT032 OVC050 M07/M09 A3011 RMK AO2 T10721088 SNB42 P0000 SLP214
Pressure 30.17 in
Visibility 10.0 miles
Clouds Few 500 ft
Scattered Clouds 3200 ft
Overcast 5000 ft
Windchill 16 °F
Dew Point 14 °F
Humidity 75%
Rainfall 0.00 in
Snow Depth Not available.
6:38 AM 5:20 PM
Waxing Crescent, 4% visible
METAR KMQY 100656Z AUTO 26004KT 10SM -SN FEW005 SCT032 OVC050 M07/M09 A3011 RMK AO2 T10721088 SNB42 P0000 SLP214

10-Day Weather Forecast

Almanac

Astronomy

Feb. 10, 2016 Rise Set
Actual Time
Civil Twilight
Nautical Twilight
Astronomical Twilight
Moon
Length of Visible Light
Length of Day
Tomorrow will be .
, % of the Moon is Illuminated

Today's Extremes

State Highs State Lows

Community

WunderPhotos

Upload Photos

1,891,826 photos uploaded!

WunderBlog® & News

Nearby

Air Quality

  Air Quality AQ Index Pollutant
Not available.

Snow Depth

Station Depth Elevation

Earthquake Activity

City Distance Mag. Time & Date
Minimum magnitude displayed is 2.5.

Coastal Water Temperatures

Place Temperature

Stations

Nearby Weather Stations

Station Location Temp. Windchill Dew Point Humidity Wind Precip. Elev Updated Type
                   

Watches & Warnings

Winter Weather Advisory
Issued: 5:31 PM CST Feb. 9, 2016 – National Weather Service

... Winter Weather Advisory now in effect until 6 am CST
Wednesday...

* timing... until 6 am CST Wednesday morning.

* Main impact... hazardous travel conditions across the area due
to snowfall as well as patchy ice on roadways.

* Total snow accumulations... 1 to 3 inches with locally higher
amounts.

Precautionary/preparedness actions...

A Winter Weather Advisory for snow means that periods of snow
will cause primarily travel difficulties. Be prepared for snow
covered roads and limited visibilities... and use caution while
driving.